Time;durP1;ratioP1;P1;durP2;ratioP2;P2;SDS_P1;SDS_P2;PMS_P1;PMS_P2;Temp;Humidity;BMP_temperature;BMP_pressure;BME280_temperature;BME280_humidity;BME280_pressure;Samples;Min_cycle;Max_cycle;Signal;HPM_P1;HPM_P2
2023/07/05 00:01:39;;;;;;;1.87;0.90;;;15.70;99.90;;;;;;5036568;28;20496;-69
2023/07/05 00:04:05;;;;;;;2.90;1.10;;;15.70;99.90;;;;;;5036200;28;20179;-69
2023/07/05 00:06:30;;;;;;;2.40;1.10;;;15.80;99.90;;;;;;5036226;28;20178;-69
2023/07/05 00:08:57;;;;;;;3.13;1.57;;;15.60;99.90;;;;;;5036111;28;20202;-69
2023/07/05 00:11:23;;;;;;;2.97;1.43;;;15.70;99.90;;;;;;5036143;28;20213;-69
2023/07/05 00:13:49;;;;;;;4.00;1.57;;;15.70;99.90;;;;;;5035952;28;20504;-69
2023/07/05 00:16:14;;;;;;;2.10;1.03;;;15.70;99.90;;;;;;5036143;28;20179;-69
2023/07/05 00:18:40;;;;;;;3.67;1.70;;;15.60;99.90;;;;;;5035929;28;20550;-69
2023/07/05 00:21:08;;;;;;;2.43;1.00;;;15.60;99.90;;;;;;5035772;28;20210;-69
2023/07/05 00:23:36;;;;;;;2.13;1.00;;;15.50;99.90;;;;;;5035842;28;20183;-69
2023/07/05 00:26:06;;;;;;;2.80;1.43;;;15.80;99.90;;;;;;5035940;28;20425;-69
2023/07/05 00:28:35;;;;;;;2.43;1.20;;;15.50;99.90;;;;;;5035709;28;20432;-69
2023/07/05 00:31:02;;;;;;;1.63;1.07;;;15.50;99.90;;;;;;5035691;28;20414;-69
2023/07/05 00:33:28;;;;;;;4.70;1.40;;;15.50;99.90;;;;;;5036053;28;20507;-69
2023/07/05 00:35:55;;;;;;;2.10;1.13;;;15.70;99.90;;;;;;5035390;28;20413;-69
2023/07/05 00:38:21;;;;;;;2.63;1.20;;;15.60;99.90;;;;;;5035659;28;20179;-69
2023/07/05 00:40:48;;;;;;;7.70;1.50;;;15.60;99.90;;;;;;5035462;28;20436;-69
2023/07/05 00:43:15;;;;;;;1.80;1.03;;;15.60;99.90;;;;;;5035274;28;20642;-69
2023/07/05 00:46:07;;;;;;;2.07;1.00;;;15.60;99.90;;;;;;5035866;28;20816;-69
2023/07/05 00:48:37;;;;;;;4.63;1.10;;;15.70;99.90;;;;;;5035571;28;20401;-69
2023/07/05 00:51:20;;;;;;;3.00;1.27;;;15.90;99.90;;;;;;5035478;28;20504;-69
2023/07/05 00:53:46;;;;;;;2.30;0.90;;;16.00;99.90;;;;;;5035626;28;20519;-69
2023/07/05 00:56:20;;;;;;;1.50;0.77;;;16.20;99.90;;;;;;5035570;28;20402;-69
2023/07/05 00:58:46;;;;;;;1.63;0.97;;;16.30;99.90;;;;;;5035638;28;20242;-69
2023/07/05 01:01:12;;;;;;;2.07;0.87;;;16.40;99.90;;;;;;5035205;28;20501;-69
2023/07/05 01:03:38;;;;;;;2.03;1.13;;;16.50;99.90;;;;;;5035379;28;20448;-69
2023/07/05 01:06:06;;;;;;;2.80;1.23;;;16.70;99.90;;;;;;5035487;28;20421;-69
2023/07/05 01:08:32;;;;;;;1.97;0.83;;;16.70;99.90;;;;;;5035210;28;20520;-69
2023/07/05 01:11:14;;;;;;;2.27;1.30;;;16.80;99.90;;;;;;5035370;28;20947;-69
2023/07/05 01:13:46;;;;;;;3.30;1.30;;;16.80;99.90;;;;;;5035325;28;20277;-68
2023/07/05 01:16:11;;;;;;;3.30;0.90;;;16.90;99.90;;;;;;5035474;28;20482;-69
2023/07/05 01:18:46;;;;;;;5.00;1.60;;;17.00;99.90;;;;;;5036198;28;20492;-69
2023/07/05 01:21:23;;;;;;;4.00;1.23;;;16.90;99.90;;;;;;5036323;28;20159;-69
2023/07/05 01:24:19;;;;;;;4.33;1.30;;;16.90;99.90;;;;;;5036716;28;20401;-69
2023/07/05 01:26:55;;;;;;;2.37;1.20;;;16.90;99.90;;;;;;5036222;28;20394;-69
2023/07/05 01:29:45;;;;;;;2.93;0.93;;;16.90;99.90;;;;;;5036073;28;20401;-69
2023/07/05 01:32:19;;;;;;;4.13;1.20;;;16.90;99.90;;;;;;5034549;28;20463;-69
2023/07/05 01:35:04;;;;;;;7.30;1.60;;;16.90;99.90;;;;;;5034376;28;20385;-69
2023/07/05 01:37:40;;;;;;;4.57;1.40;;;16.90;99.90;;;;;;5034644;28;20456;-69
2023/07/05 01:40:21;;;;;;;4.30;1.90;;;16.80;99.90;;;;;;5034396;28;20401;-69
2023/07/05 01:42:51;;;;;;;2.97;1.40;;;16.70;99.90;;;;;;5034590;28;20417;-69
2023/07/05 01:45:21;;;;;;;3.90;1.67;;;16.80;99.90;;;;;;5034239;28;20417;-69
2023/07/05 01:48:06;;;;;;;6.30;1.47;;;16.80;99.90;;;;;;5033609;28;20429;-69
2023/07/05 01:50:57;;;;;;;2.40;1.30;;;16.70;99.90;;;;;;5034284;28;20471;-69
2023/07/05 01:53:33;;;;;;;2.43;1.13;;;16.60;99.90;;;;;;5034300;28;20476;-69
2023/07/05 01:56:07;;;;;;;6.53;1.70;;;16.60;99.90;;;;;;5034133;28;20397;-69
2023/07/05 01:58:40;;;;;;;4.30;1.40;;;16.50;99.90;;;;;;5034263;28;20397;-69
2023/07/05 02:01:09;;;;;;;1.80;0.90;;;16.50;99.90;;;;;;5034165;28;20397;-69
2023/07/05 02:03:36;;;;;;;2.53;1.23;;;16.50;99.90;;;;;;5033944;28;20835;-69
2023/07/05 02:06:03;;;;;;;8.53;1.37;;;16.60;99.90;;;;;;5033841;28;20428;-69
2023/07/05 02:08:29;;;;;;;11.67;1.60;;;16.70;99.90;;;;;;5034058;28;20415;-69
2023/07/05 02:10:54;;;;;;;2.47;1.10;;;16.60;99.90;;;;;;5033705;28;20809;-69
2023/07/05 02:13:20;;;;;;;2.27;1.33;;;16.70;99.90;;;;;;5033720;28;20217;-69
2023/07/05 02:15:50;;;;;;;6.03;1.73;;;16.70;99.90;;;;;;5033713;28;20570;-69
2023/07/05 02:18:16;;;;;;;2.03;1.00;;;16.70;99.90;;;;;;5034006;28;20185;-69
2023/07/05 02:20:42;;;;;;;2.53;1.10;;;16.70;99.90;;;;;;5033597;28;20901;-69
2023/07/05 02:23:07;;;;;;;1.80;0.97;;;16.70;99.90;;;;;;5033566;28;20429;-69
2023/07/05 02:25:34;;;;;;;2.13;1.20;;;16.70;99.90;;;;;;5033591;28;20190;-69
2023/07/05 02:28:00;;;;;;;1.70;1.13;;;16.70;99.90;;;;;;5033499;28;20226;-69
2023/07/05 02:30:26;;;;;;;2.33;1.27;;;16.70;99.90;;;;;;5033489;28;20479;-69
2023/07/05 02:32:52;;;;;;;2.20;1.23;;;16.60;99.90;;;;;;5033659;28;20209;-68
2023/07/05 02:35:17;;;;;;;1.90;1.00;;;16.60;99.90;;;;;;5033440;28;20440;-68
2023/07/05 02:37:43;;;;;;;1.90;1.00;;;16.50;99.90;;;;;;5033496;28;20213;-69
2023/07/05 02:40:09;;;;;;;2.20;1.00;;;16.50;99.90;;;;;;5033426;28;20175;-68
2023/07/05 02:42:34;;;;;;;2.70;0.93;;;16.50;99.90;;;;;;5033570;28;20184;-68
2023/07/05 02:45:00;;;;;;;2.57;1.20;;;16.60;99.90;;;;;;5033324;28;20174;-69
2023/07/05 02:47:26;;;;;;;2.90;1.20;;;16.70;99.90;;;;;;5033722;28;20197;-69
2023/07/05 02:49:51;;;;;;;2.07;1.00;;;16.70;99.90;;;;;;5033298;28;20178;-69
2023/07/05 02:52:17;;;;;;;2.90;1.10;;;16.70;99.90;;;;;;5033069;28;20705;-69
2023/07/05 02:54:42;;;;;;;3.40;1.33;;;16.70;99.90;;;;;;5033191;28;20189;-69
2023/07/05 02:57:08;;;;;;;3.30;1.13;;;16.70;99.90;;;;;;5033343;28;20170;-69
2023/07/05 02:59:34;;;;;;;1.70;0.90;;;16.70;99.90;;;;;;5033021;28;20177;-68
2023/07/05 03:01:59;;;;;;;2.67;1.43;;;16.60;99.90;;;;;;5033216;28;20220;-68
2023/07/05 03:04:27;;;;;;;2.23;1.37;;;16.60;99.90;;;;;;5033028;28;20181;-68
2023/07/05 03:06:53;;;;;;;2.33;1.20;;;16.40;99.90;;;;;;5033059;28;20170;-68
2023/07/05 03:09:19;;;;;;;1.77;1.10;;;16.20;99.90;;;;;;5032914;28;20405;-68
2023/07/05 03:11:44;;;;;;;1.90;0.90;;;16.20;99.90;;;;;;5033067;28;20666;-68
2023/07/05 03:14:10;;;;;;;3.23;1.30;;;16.10;99.90;;;;;;5033430;28;20217;-68
2023/07/05 03:16:35;;;;;;;3.17;1.00;;;16.10;99.90;;;;;;5033516;28;20258;-68
2023/07/05 03:19:01;;;;;;;3.27;1.70;;;16.10;99.90;;;;;;5033657;28;20174;-68
2023/07/05 03:21:27;;;;;;;4.00;1.30;;;16.10;99.90;;;;;;5033464;28;20225;-68
2023/07/05 03:23:52;;;;;;;1.87;1.23;;;16.00;99.90;;;;;;5033709;28;20206;-68
2023/07/05 03:26:18;;;;;;;3.23;1.23;;;16.00;99.90;;;;;;5033925;28;20174;-68
2023/07/05 03:28:43;;;;;;;3.90;1.10;;;16.10;99.90;;;;;;5033291;28;20232;-68
2023/07/05 03:31:11;;;;;;;14.23;1.43;;;16.00;99.90;;;;;;5033456;28;20269;-68
2023/07/05 03:33:38;;;;;;;2.20;0.97;;;16.00;99.90;;;;;;5033591;28;20237;-68
2023/07/05 03:36:13;;;;;;;1.57;0.90;;;16.00;99.90;;;;;;5033334;28;20412;-68
2023/07/05 03:38:38;;;;;;;2.60;1.53;;;16.00;99.90;;;;;;5033946;28;20389;-68
2023/07/05 03:41:07;;;;;;;2.20;1.30;;;16.00;99.90;;;;;;5033254;28;20447;-68
2023/07/05 03:43:35;;;;;;;3.53;1.30;;;16.00;99.90;;;;;;5033406;28;20183;-68
2023/07/05 03:46:02;;;;;;;5.00;1.83;;;16.00;99.90;;;;;;5033294;28;20421;-68
2023/07/05 03:48:30;;;;;;;4.40;1.73;;;15.90;99.90;;;;;;5033307;28;20433;-68
2023/07/05 03:50:57;;;;;;;2.87;1.50;;;15.90;99.90;;;;;;5033222;28;20963;-68
2023/07/05 03:53:23;;;;;;;3.10;1.13;;;15.90;99.90;;;;;;5033406;28;20468;-68
2023/07/05 03:55:49;;;;;;;2.27;1.23;;;15.90;99.90;;;;;;5033587;28;20405;-68
2023/07/05 03:58:15;;;;;;;1.83;0.90;;;15.90;99.90;;;;;;5033514;28;20405;-68
2023/07/05 04:00:40;;;;;;;1.90;0.93;;;15.90;99.90;;;;;;5033131;28;20193;-68
2023/07/05 04:03:06;;;;;;;1.47;0.90;;;15.90;99.90;;;;;;5033596;28;20528;-68
2023/07/05 04:05:32;;;;;;;2.20;1.30;;;15.90;99.90;;;;;;5033233;28;20212;-68
2023/07/05 04:07:58;;;;;;;2.83;1.47;;;15.90;99.90;;;;;;5033641;28;20166;-68
2023/07/05 04:10:23;;;;;;;1.73;0.90;;;15.90;99.90;;;;;;5034317;28;20476;-68
2023/07/05 04:12:49;;;;;;;3.60;1.47;;;15.90;99.90;;;;;;5036855;28;20208;-68
2023/07/05 04:15:15;;;;;;;2.03;1.07;;;16.00;99.90;;;;;;5036887;28;20167;-68
2023/07/05 04:17:40;;;;;;;4.13;1.30;;;16.00;99.90;;;;;;5036572;28;20624;-68
2023/07/05 04:20:07;;;;;;;2.70;1.40;;;16.00;99.90;;;;;;5036585;28;20558;-68
2023/07/05 04:22:35;;;;;;;5.30;1.00;;;16.00;99.90;;;;;;5036441;28;20181;-68
2023/07/05 04:25:01;;;;;;;2.00;0.93;;;15.90;99.90;;;;;;5036906;28;20416;-68
2023/07/05 04:27:27;;;;;;;2.17;1.00;;;16.00;99.90;;;;;;5036481;28;20452;-68
2023/07/05 04:29:53;;;;;;;3.10;1.47;;;15.90;99.90;;;;;;5036908;28;20413;-68
2023/07/05 04:32:18;;;;;;;2.40;1.10;;;16.00;99.90;;;;;;5036681;28;20602;-68
2023/07/05 04:34:44;;;;;;;4.07;1.40;;;16.00;99.90;;;;;;5036855;28;20266;-68
2023/07/05 04:37:09;;;;;;;1.90;1.00;;;16.00;99.90;;;;;;5036169;28;20171;-68
2023/07/05 04:39:35;;;;;;;1.93;0.93;;;16.00;99.90;;;;;;5036415;28;20175;-68
2023/07/05 04:42:01;;;;;;;2.00;1.10;;;15.90;99.90;;;;;;5036321;28;20171;-68
2023/07/05 04:44:27;;;;;;;4.90;2.10;;;15.90;99.90;;;;;;5036378;28;20174;-68
2023/07/05 04:46:52;;;;;;;2.63;1.17;;;15.90;99.90;;;;;;5036035;28;20484;-68
2023/07/05 04:49:18;;;;;;;2.83;1.03;;;15.90;99.90;;;;;;5036040;28;20753;-68
2023/07/05 04:51:43;;;;;;;10.83;1.73;;;15.90;99.90;;;;;;5036157;28;20177;-68
2023/07/05 04:54:09;;;;;;;1.77;1.13;;;16.00;99.90;;;;;;5036389;28;20206;-68
2023/07/05 04:56:35;;;;;;;4.43;1.67;;;15.90;99.90;;;;;;5036258;28;20171;-68
2023/07/05 04:59:00;;;;;;;9.50;1.10;;;16.00;99.90;;;;;;5035911;28;20171;-68
2023/07/05 05:01:26;;;;;;;5.23;1.47;;;16.10;99.90;;;;;;5036069;28;20175;-68
2023/07/05 05:03:51;;;;;;;3.20;1.43;;;16.10;99.90;;;;;;5035818;28;20624;-68
2023/07/05 05:06:17;;;;;;;5.50;1.97;;;16.20;99.90;;;;;;5035822;28;20269;-68
2023/07/05 05:08:43;;;;;;;2.13;1.23;;;16.20;99.90;;;;;;5035685;28;20361;-68
2023/07/05 05:11:08;;;;;;;22.10;2.00;;;16.20;99.90;;;;;;5035542;28;20620;-68
2023/07/05 05:13:36;;;;;;;1.93;0.90;;;16.20;99.90;;;;;;5035416;28;20204;-68
2023/07/05 05:16:02;;;;;;;5.63;1.13;;;16.30;99.90;;;;;;5035703;28;20173;-68
2023/07/05 05:18:32;;;;;;;1.50;0.80;;;16.40;99.90;;;;;;5035701;28;20440;-68
2023/07/05 05:20:58;;;;;;;4.10;1.53;;;16.60;99.90;;;;;;5035162;28;20968;-68
2023/07/05 05:23:25;;;;;;;7.30;1.17;;;16.60;99.90;;;;;;5034766;28;20505;-68
2023/07/05 05:25:50;;;;;;;3.50;1.07;;;16.70;99.90;;;;;;5035394;28;20444;-68
2023/07/05 05:28:16;;;;;;;4.63;1.10;;;16.70;99.90;;;;;;5035221;28;20425;-68
2023/07/05 05:30:43;;;;;;;2.63;0.97;;;16.70;99.90;;;;;;5035222;28;20179;-68
2023/07/05 05:33:10;;;;;;;2.23;1.07;;;16.60;99.90;;;;;;5035134;28;20449;-68
2023/07/05 05:35:36;;;;;;;2.33;1.00;;;16.80;99.90;;;;;;5035178;28;20448;-69
2023/07/05 05:38:03;;;;;;;1.77;0.93;;;16.80;99.90;;;;;;5035271;28;20433;-69
2023/07/05 05:40:29;;;;;;;1.53;0.93;;;16.90;99.90;;;;;;5035102;28;20171;-68
2023/07/05 05:42:54;;;;;;;2.80;1.20;;;17.10;99.90;;;;;;5035049;28;20428;-69
2023/07/05 05:45:20;;;;;;;3.30;1.20;;;17.10;99.90;;;;;;5035660;28;20612;-69
2023/07/05 05:47:45;;;;;;;2.70;0.80;;;17.20;99.90;;;;;;5035146;28;20682;-68
2023/07/05 05:50:11;;;;;;;3.00;1.10;;;17.30;99.90;;;;;;5034932;28;20170;-69
2023/07/05 05:52:37;;;;;;;2.20;1.10;;;17.40;99.90;;;;;;5035111;28;20281;-68
2023/07/05 05:55:03;;;;;;;2.77;1.33;;;17.50;99.90;;;;;;5033483;28;20174;-69
2023/07/05 05:57:28;;;;;;;2.60;1.23;;;17.50;99.90;;;;;;5034614;28;20175;-68
2023/07/05 05:59:54;;;;;;;5.10;1.87;;;17.50;99.90;;;;;;5034535;28;20412;-68
2023/07/05 06:02:20;;;;;;;2.20;1.10;;;17.60;99.90;;;;;;5034349;28;20175;-68
2023/07/05 06:04:46;;;;;;;2.00;1.10;;;17.70;99.90;;;;;;5034558;28;20559;-68
2023/07/05 06:07:11;;;;;;;7.40;1.90;;;17.80;99.90;;;;;;5033897;28;20179;-68
2023/07/05 06:09:48;;;;;;;1.83;1.17;;;17.80;99.90;;;;;;5034022;28;20175;-68
2023/07/05 06:12:14;;;;;;;2.87;1.47;;;18.00;99.90;;;;;;5034056;28;20659;-68
2023/07/05 06:14:40;;;;;;;5.23;1.10;;;18.10;99.90;;;;;;5034397;28;20401;-69
2023/07/05 06:17:06;;;;;;;6.30;1.73;;;18.20;99.90;;;;;;5034298;28;20944;-69
2023/07/05 06:19:32;;;;;;;3.03;1.17;;;18.10;99.90;;;;;;5034387;28;20170;-68
2023/07/05 06:21:59;;;;;;;2.60;1.60;;;18.20;99.90;;;;;;5033938;28;20493;-68
2023/07/05 06:24:25;;;;;;;4.90;1.43;;;18.30;99.90;;;;;;5033931;28;20214;-69
2023/07/05 06:26:52;;;;;;;2.77;1.43;;;18.40;99.90;;;;;;5033931;28;20420;-69
2023/07/05 06:29:17;;;;;;;2.70;1.30;;;18.40;99.90;;;;;;5034535;28;20159;-68
2023/07/05 06:31:43;;;;;;;2.07;0.90;;;18.40;99.90;;;;;;5032454;28;20870;-69
2023/07/05 06:34:09;;;;;;;2.80;1.13;;;18.60;99.90;;;;;;5033578;28;20203;-68
2023/07/05 06:36:34;;;;;;;2.80;1.43;;;18.70;99.90;;;;;;5033959;28;20280;-69
2023/07/05 06:39:00;;;;;;;2.90;1.40;;;18.90;99.90;;;;;;5034018;28;20166;-68
2023/07/05 06:41:25;;;;;;;3.50;1.40;;;19.10;99.90;;;;;;5034753;28;20197;-68
2023/07/05 06:43:51;;;;;;;2.27;1.10;;;19.00;99.90;;;;;;5034413;28;20226;-68
2023/07/05 06:46:17;;;;;;;2.50;1.00;;;18.80;99.90;;;;;;5036029;28;20510;-67
2023/07/05 06:48:43;;;;;;;8.03;2.47;;;18.50;99.90;;;;;;5037978;28;20269;-69
2023/07/05 06:51:08;;;;;;;2.77;1.57;;;18.10;99.90;;;;;;5036598;28;20536;-69
2023/07/05 06:53:34;;;;;;;2.30;1.10;;;17.80;99.90;;;;;;5035356;28;20449;-68
2023/07/05 06:56:00;;;;;;;2.80;1.00;;;17.50;99.90;;;;;;5033506;28;20170;-68
2023/07/05 06:58:25;;;;;;;1.70;0.70;;;17.30;99.90;;;;;;5031939;28;20254;-68
2023/07/05 07:00:51;;;;;;;3.10;1.43;;;17.10;99.90;;;;;;5032937;28;20684;-68
2023/07/05 07:03:17;;;;;;;3.77;1.43;;;16.90;99.90;;;;;;5033495;28;20186;-68
2023/07/05 07:05:56;;;;;;;1.60;0.93;;;16.90;99.90;;;;;;5033280;28;20187;-68
2023/07/05 07:08:27;;;;;;;2.33;1.10;;;16.80;99.90;;;;;;5033031;28;20417;-68
2023/07/05 07:10:52;;;;;;;1.80;1.13;;;16.80;99.90;;;;;;5033134;28;20417;-68
2023/07/05 07:13:18;;;;;;;2.93;0.93;;;16.80;99.90;;;;;;5033050;28;20554;-68
2023/07/05 07:15:44;;;;;;;1.97;1.13;;;17.00;99.90;;;;;;5033148;28;20177;-68
2023/07/05 07:18:10;;;;;;;4.60;1.10;;;17.00;99.90;;;;;;5033231;28;20542;-68
2023/07/05 07:20:35;;;;;;;2.60;0.90;;;17.00;99.90;;;;;;5033016;28;20179;-68
2023/07/05 07:23:01;;;;;;;2.57;1.10;;;16.90;99.90;;;;;;5033027;28;20463;-69
2023/07/05 07:25:28;;;;;;;1.80;1.10;;;16.90;99.90;;;;;;5033059;28;20601;-68
2023/07/05 07:27:53;;;;;;;2.33;0.90;;;17.00;99.90;;;;;;5032927;28;20194;-69
2023/07/05 07:30:19;;;;;;;3.73;1.23;;;17.00;99.90;;;;;;5032908;28;20421;-69
2023/07/05 07:32:46;;;;;;;2.80;0.80;;;17.10;99.90;;;;;;5032780;28;20202;-69
2023/07/05 07:35:12;;;;;;;1.83;0.80;;;17.20;99.90;;;;;;5032898;28;20210;-69
2023/07/05 07:37:37;;;;;;;1.40;0.60;;;17.30;99.90;;;;;;5032825;28;20433;-69
2023/07/05 07:40:06;;;;;;;2.50;0.90;;;17.30;99.90;;;;;;5032830;28;20183;-69
2023/07/05 07:42:32;;;;;;;2.87;0.70;;;17.30;99.90;;;;;;5033007;28;20178;-69
2023/07/05 07:44:57;;;;;;;1.93;0.80;;;17.40;99.90;;;;;;5033306;28;20421;-69
2023/07/05 07:47:23;;;;;;;2.47;0.87;;;17.30;99.90;;;;;;5036675;28;20201;-69
2023/07/05 07:49:49;;;;;;;1.83;0.93;;;17.20;99.90;;;;;;5036584;28;20178;-69
2023/07/05 07:52:15;;;;;;;3.87;1.07;;;17.20;99.90;;;;;;5036336;28;20182;-69
2023/07/05 07:54:42;;;;;;;2.07;0.90;;;17.20;99.90;;;;;;5036394;28;20432;-69
2023/07/05 07:57:08;;;;;;;2.37;1.10;;;17.30;99.90;;;;;;5036398;28;20882;-71
2023/07/05 07:59:35;;;;;;;1.70;0.83;;;17.20;99.90;;;;;;5036472;28;20413;-71
2023/07/05 08:02:02;;;;;;;2.73;0.80;;;17.20;99.90;;;;;;5036613;28;20163;-71
2023/07/05 08:04:28;;;;;;;3.37;1.00;;;17.10;99.90;;;;;;5036323;28;20409;-71
2023/07/05 08:06:54;;;;;;;1.90;0.90;;;17.00;99.90;;;;;;5036530;28;20425;-70
2023/07/05 08:09:29;;;;;;;2.87;1.10;;;16.90;99.90;;;;;;5036702;28;20427;-71
2023/07/05 08:11:55;;;;;;;3.03;0.87;;;16.90;99.90;;;;;;5036444;28;20464;-71
2023/07/05 08:14:22;;;;;;;1.40;0.73;;;16.70;99.90;;;;;;5036139;28;20460;-71
2023/07/05 08:16:48;;;;;;;1.77;0.83;;;16.70;99.90;;;;;;5036189;28;20412;-71
2023/07/05 08:19:14;;;;;;;1.40;0.70;;;16.60;99.90;;;;;;5036114;28;20798;-70
2023/07/05 08:21:43;;;;;;;1.97;0.87;;;16.60;99.90;;;;;;5036009;28;20513;-71
2023/07/05 08:24:10;;;;;;;1.43;0.67;;;16.70;99.90;;;;;;5036286;28;20409;-70
2023/07/05 08:26:35;;;;;;;1.80;0.77;;;16.70;99.90;;;;;;5036454;28;20822;-70
2023/07/05 08:29:02;;;;;;;2.43;0.87;;;16.80;99.90;;;;;;5036471;28;20437;-70
2023/07/05 08:31:29;;;;;;;4.20;1.10;;;16.90;99.90;;;;;;5035858;28;20590;-71
2023/07/05 08:33:55;;;;;;;1.97;0.90;;;17.10;99.90;;;;;;5036097;28;20457;-71
2023/07/05 08:36:28;;;;;;;1.93;0.70;;;17.30;99.90;;;;;;5035798;28;20501;-71
2023/07/05 08:38:57;;;;;;;2.07;1.00;;;17.20;99.90;;;;;;5035969;28;20197;-71
2023/07/05 08:41:44;;;;;;;1.97;0.97;;;17.10;99.90;;;;;;5035848;28;20417;-71
2023/07/05 08:44:22;;;;;;;2.90;1.10;;;16.90;99.90;;;;;;5035522;28;20411;-71
2023/07/05 08:47:07;;;;;;;1.67;0.80;;;16.80;99.90;;;;;;5035542;28;20441;-70
2023/07/05 08:49:47;;;;;;;1.80;0.77;;;16.70;99.90;;;;;;5035903;28;20802;-70
2023/07/05 08:52:24;;;;;;;1.47;0.70;;;16.80;99.90;;;;;;5035703;28;20417;-70
2023/07/05 08:54:55;;;;;;;1.90;1.00;;;16.80;99.90;;;;;;5035818;28;20393;-71
2023/07/05 08:57:27;;;;;;;2.50;0.77;;;16.90;99.90;;;;;;5035628;28;20835;-71
2023/07/05 09:00:06;;;;;;;1.50;0.83;;;17.40;99.90;;;;;;5035456;28;20401;-71
2023/07/05 09:02:32;;;;;;;1.60;0.80;;;18.30;99.90;;;;;;5035229;28;20397;-70
2023/07/05 09:04:58;;;;;;;1.40;0.70;;;19.40;99.90;;;;;;5035380;28;20412;-70
2023/07/05 09:07:49;;;;;;;2.50;1.03;;;20.20;99.90;;;;;;5035177;28;20179;-71
2023/07/05 09:10:27;;;;;;;2.50;1.07;;;21.00;99.90;;;;;;5035491;28;20178;-71
2023/07/05 09:12:59;;;;;;;1.97;0.97;;;21.10;99.90;;;;;;5035107;28;20487;-71
2023/07/05 09:15:31;;;;;;;4.70;1.33;;;21.10;99.90;;;;;;5035620;28;20393;-71
2023/07/05 09:18:09;;;;;;;3.40;1.10;;;21.70;99.90;;;;;;5035570;28;20385;-71
2023/07/05 09:20:53;;;;;;;1.87;0.87;;;21.40;99.90;;;;;;5048225;23;20508;-79
2023/07/05 09:23:41;;;;;;;3.50;1.13;;;21.40;99.90;;;;;;5025427;28;20467;-80
2023/07/05 09:26:33;;;;;;;3.47;1.37;;;21.30;99.90;;;;;;5036296;28;20425;-80
2023/07/05 09:29:11;;;;;;;1.77;0.87;;;21.10;99.90;;;;;;5036696;28;20929;-82
2023/07/05 09:31:37;;;;;;;2.93;1.10;;;21.50;99.10;;;;;;5048124;28;20423;-80
2023/07/05 09:34:17;;;;;;;3.00;1.23;;;22.00;97.90;;;;;;5039172;28;20468;-79
2023/07/05 09:36:45;;;;;;;3.43;1.37;;;21.60;97.80;;;;;;5026138;28;20336;-79
2023/07/05 09:39:38;;;;;;;2.07;0.80;;;22.10;96.60;;;;;;5051320;28;20419;-78
2023/07/05 09:42:08;;;;;;;3.10;1.50;;;21.60;97.30;;;;;;5017238;28;20942;-79
2023/07/05 09:44:34;;;;;;;2.03;0.80;;;20.80;98.30;;;;;;5042438;28;20517;-78
2023/07/05 09:46:59;;;;;;;2.33;1.10;;;20.40;99.90;;;;;;5057871;28;20409;-81
2023/07/05 09:49:26;;;;;;;4.60;1.57;;;20.10;98.90;;;;;;5056304;28;20193;-80
2023/07/05 09:51:53;;;;;;;2.40;1.40;;;19.80;99.80;;;;;;5055083;28;20182;-80
2023/07/05 09:54:26;;;;;;;3.33;1.73;;;20.10;97.50;;;;;;5053881;28;20472;-81
2023/07/05 09:56:56;;;;;;;3.30;1.60;;;20.00;98.50;;;;;;5054375;28;20519;-80
2023/07/05 09:59:22;;;;;;;2.43;1.07;;;20.00;96.50;;;;;;5043043;28;20911;-80
2023/07/05 10:01:51;;;;;;;3.70;1.07;;;20.00;96.50;;;;;;5054273;28;20430;-80
2023/07/05 10:04:17;;;;;;;2.93;1.30;;;20.40;97.10;;;;;;5044989;28;20229;-80
2023/07/05 10:06:46;;;;;;;5.70;1.60;;;21.00;96.30;;;;;;5044222;28;20437;-79
2023/07/05 10:09:17;;;;;;;4.60;2.00;;;21.40;95.70;;;;;;5053478;28;20423;-80
2023/07/05 10:11:46;;;;;;;5.03;1.97;;;22.00;94.60;;;;;;5053803;28;20426;-80
2023/07/05 10:14:15;;;;;;;4.00;1.83;;;22.50;92.50;;;;;;5050267;28;20468;-81
2023/07/05 10:17:02;;;;;;;2.27;1.23;;;22.40;91.20;;;;;;5050489;28;20432;-80
2023/07/05 10:19:38;;;;;;;8.90;1.67;;;22.20;90.00;;;;;;5040832;28;20420;-80
2023/07/05 10:22:14;;;;;;;2.77;1.03;;;22.30;90.50;;;;;;5045720;28;20442;-80
2023/07/05 10:24:45;;;;;;;4.30;1.37;;;22.10;86.80;;;;;;5052473;28;20418;-79
2023/07/05 10:27:51;;;;;;;3.77;1.40;;;22.20;90.70;;;;;;5047225;28;20427;-80
2023/07/05 10:30:20;;;;;;;3.27;1.43;;;22.20;88.50;;;;;;5024755;28;20436;-79
2023/07/05 10:33:15;;;;;;;2.57;1.40;;;22.00;80.60;;;;;;5035228;28;20540;-80
2023/07/05 10:35:57;;;;;;;2.00;1.13;;;22.40;81.30;;;;;;5049730;28;20424;-80
2023/07/05 10:38:27;;;;;;;2.80;1.30;;;22.30;75.70;;;;;;5036493;28;20433;-79
2023/07/05 10:41:04;;;;;;;3.60;1.30;;;22.00;75.80;;;;;;5050357;28;20424;-80
2023/07/05 10:43:32;;;;;;;3.73;1.80;;;21.90;74.70;;;;;;5047842;28;20447;-80
2023/07/05 10:46:00;;;;;;;4.50;2.00;;;21.90;74.90;;;;;;5051441;28;20431;-80
2023/07/05 10:48:40;;;;;;;3.63;1.47;;;21.80;71.70;;;;;;5050132;28;20931;-79
2023/07/05 10:51:14;;;;;;;3.87;1.23;;;22.00;72.30;;;;;;5049902;28;20530;-79
2023/07/05 10:53:42;;;;;;;2.43;0.80;;;22.00;71.40;;;;;;5049338;28;21133;-79
2023/07/05 10:56:18;;;;;;;2.53;1.13;;;21.80;68.80;;;;;;5051680;28;20427;-80
2023/07/05 10:58:50;;;;;;;3.33;1.20;;;21.70;61.80;;;;;;5029208;28;20462;-78
2023/07/05 11:01:28;;;;;;;2.90;1.23;;;21.90;63.30;;;;;;5050855;28;20415;-79
2023/07/05 11:04:00;;;;;;;4.40;1.73;;;22.10;64.70;;;;;;5048808;28;21016;-79
2023/07/05 11:06:27;;;;;;;3.17;1.53;;;22.10;62.20;;;;;;5046961;28;20424;-79
2023/07/05 11:08:53;;;;;;;4.83;1.57;;;22.20;65.00;;;;;;5050537;28;20443;-79
2023/07/05 11:11:27;;;;;;;3.17;1.67;;;22.20;63.80;;;;;;5049722;28;21115;-79
2023/07/05 11:13:54;;;;;;;2.03;1.13;;;22.30;65.90;;;;;;5038969;28;20508;-80
2023/07/05 11:16:22;;;;;;;3.87;1.40;;;22.40;64.40;;;;;;5047126;28;20416;-79
2023/07/05 11:18:50;;;;;;;2.63;1.30;;;22.40;59.70;;;;;;5047442;28;20428;-80
2023/07/05 11:21:38;;;;;;;5.77;1.23;;;22.40;61.60;;;;;;5052485;28;20450;-80
2023/07/05 11:24:06;;;;;;;5.97;1.40;;;22.40;62.50;;;;;;5043310;28;20964;-80
2023/07/05 11:26:31;;;;;;;2.17;0.97;;;22.60;63.50;;;;;;5056774;28;20959;-81
2023/07/05 11:28:57;;;;;;;2.63;1.30;;;22.60;64.80;;;;;;5055456;28;20473;-80
2023/07/05 11:31:29;;;;;;;1.67;0.70;;;22.80;65.10;;;;;;5039998;28;20187;-81
2023/07/05 11:34:32;;;;;;;3.70;1.43;;;22.70;64.80;;;;;;5046215;28;20714;-81
2023/07/05 11:37:03;;;;;;;3.43;1.50;;;22.50;63.60;;;;;;5047968;28;20515;-79
2023/07/05 11:39:33;;;;;;;3.40;2.03;;;22.70;63.70;;;;;;5047645;28;20416;-80
2023/07/05 11:42:17;;;;;;;3.77;1.33;;;22.80;65.20;;;;;;5056482;28;20469;-80
2023/07/05 11:44:43;;;;;;;2.43;1.03;;;22.90;65.00;;;;;;5053026;28;20793;-80
2023/07/05 11:47:24;;;;;;;6.60;2.37;;;22.80;64.40;;;;;;5055370;28;20841;-81
2023/07/05 11:49:55;;;;;;;3.23;1.50;;;22.70;66.80;;;;;;5055299;28;20419;-80
2023/07/05 11:52:26;;;;;;;4.20;1.57;;;22.60;65.60;;;;;;5055226;28;20806;-81
2023/07/05 11:55:10;;;;;;;3.60;1.40;;;22.80;66.60;;;;;;5055774;28;20443;-80
2023/07/05 11:58:02;;;;;;;7.53;1.37;;;23.20;66.20;;;;;;5059082;28;20412;-81
2023/07/05 12:00:58;;;;;;;3.10;1.47;;;23.20;67.20;;;;;;5051136;28;20413;-79
2023/07/05 12:03:28;;;;;;;2.93;1.10;;;23.50;66.30;;;;;;5032348;28;20443;-81
2023/07/05 12:05:59;;;;;;;2.37;1.20;;;23.50;64.60;;;;;;5060588;28;20437;-80
2023/07/05 12:09:01;;;;;;;5.50;1.40;;;23.30;61.80;;;;;;5079613;28;20412;-81
2023/07/05 12:11:34;;;;;;;3.93;1.30;;;23.20;63.40;;;;;;5024492;28;20411;-82
2023/07/05 12:14:02;;;;;;;3.93;1.30;;;23.20;64.30;;;;;;5067994;28;20456;-81
2023/07/05 12:16:28;;;;;;;3.30;1.33;;;23.40;62.20;;;;;;5071274;28;20420;-79
2023/07/05 12:18:54;;;;;;;3.43;1.70;;;23.60;60.70;;;;;;5039023;28;20427;-79
2023/07/05 12:21:20;;;;;;;4.67;1.50;;;23.40;60.50;;;;;;5058445;28;20510;-80
2023/07/05 12:23:50;;;;;;;2.40;1.00;;;23.30;61.60;;;;;;5058711;28;20901;-80
2023/07/05 12:26:31;;;;;;;4.60;1.77;;;23.30;58.80;;;;;;5059668;28;20177;-81
2023/07/05 12:29:01;;;;;;;3.43;1.30;;;23.40;60.80;;;;;;5057005;28;20821;-81
2023/07/05 12:31:27;;;;;;;2.50;1.57;;;23.50;60.00;;;;;;5041151;28;20464;-81
2023/07/05 12:34:00;;;;;;;1.90;1.00;;;23.50;60.80;;;;;;5046140;28;20471;-80
2023/07/05 12:36:26;;;;;;;2.50;1.47;;;23.80;58.90;;;;;;5050798;28;20423;-81
2023/07/05 12:39:14;;;;;;;2.43;1.10;;;24.10;57.70;;;;;;5047549;28;20420;-80
2023/07/05 12:41:39;;;;;;;1.93;0.90;;;23.60;56.90;;;;;;5044290;28;20193;-80
2023/07/05 12:44:14;;;;;;;3.07;1.37;;;23.50;57.00;;;;;;5058267;28;21163;-80
2023/07/05 12:46:41;;;;;;;1.83;1.00;;;23.20;58.10;;;;;;5061526;28;20193;-80
2023/07/05 12:49:18;;;;;;;3.20;1.53;;;23.70;58.00;;;;;;5062425;28;20477;-82
2023/07/05 12:51:55;;;;;;;4.50;1.43;;;23.90;57.70;;;;;;5047703;28;20538;-81
2023/07/05 12:54:22;;;;;;;1.97;0.93;;;23.90;58.50;;;;;;5058330;28;21249;-81
2023/07/05 12:56:49;;;;;;;1.60;0.90;;;23.90;56.40;;;;;;5057733;28;21109;-81
2023/07/05 12:59:32;;;;;;;2.67;1.30;;;23.80;55.60;;;;;;5054912;28;20916;-80